createdAt,value
2024-05-09T00:01:35.339Z,101968.03
2024-05-09T00:06:40.773Z,101963.59
2024-05-09T00:11:48.909Z,101959.22
2024-05-09T00:16:54.378Z,101964.09
2024-05-09T00:21:59.913Z,101966.44
2024-05-09T00:27:09.052Z,101963.88
2024-05-09T00:32:33.379Z,101959.81
2024-05-09T00:37:38.834Z,101969.66
2024-05-09T00:42:44.182Z,101963.47
2024-05-09T00:47:52.579Z,101974.78
2024-05-09T00:52:58.303Z,101966.22
2024-05-09T00:58:03.958Z,101967.63
2024-05-09T01:03:13.887Z,101968.13
2024-05-09T01:08:20.083Z,101967.47
2024-05-09T01:13:25.726Z,101969.22
2024-05-09T01:18:34.070Z,101961.94
2024-05-09T01:23:42.414Z,101960.22
2024-05-09T01:28:48.024Z,101963.84
2024-05-09T01:33:53.460Z,101962.50
2024-05-09T01:39:02.534Z,101964.94
2024-05-09T01:44:08.332Z,101953.81
2024-05-09T01:49:13.898Z,101960.63
2024-05-09T01:54:22.298Z,101960.63
2024-05-09T01:59:27.815Z,101957.56
2024-05-09T02:04:33.381Z,101969.75
2024-05-09T02:09:41.432Z,101962.66
2024-05-09T02:14:46.739Z,101954.25
2024-05-09T02:19:52.350Z,101960.28
2024-05-09T02:25:00.598Z,101964.09
2024-05-09T02:30:12.091Z,101963.03
2024-05-09T02:35:21.054Z,101959.03
2024-05-09T02:40:36.406Z,101961.38
2024-05-09T02:45:44.200Z,101958.38
2024-05-09T02:50:49.784Z,101962.63
2024-05-09T02:55:57.797Z,101962.28
2024-05-09T03:01:03.436Z,101956.00
2024-05-09T03:06:09.081Z,101959.88
2024-05-09T03:11:23.750Z,101964.06
2024-05-09T03:16:29.509Z,101960.56
2024-05-09T03:21:35.497Z,101957.91
2024-05-09T03:26:44.895Z,101960.06
2024-05-09T03:31:51.367Z,101962.63
2024-05-09T03:36:56.778Z,101956.09
2024-05-09T03:42:04.777Z,101965.78
2024-05-09T03:47:10.111Z,101957.59
2024-05-09T03:52:15.434Z,101969.22
2024-05-09T03:57:23.456Z,101954.00
2024-05-09T04:02:28.878Z,101963.88
2024-05-09T04:07:34.198Z,101958.00
2024-05-09T04:12:42.140Z,101951.03
2024-05-09T04:17:51.596Z,101959.13
2024-05-09T04:22:57.259Z,101957.06
2024-05-09T04:28:05.459Z,101962.72
2024-05-09T04:33:13.541Z,101965.16
2024-05-09T04:38:20.075Z,101968.72
2024-05-09T04:43:28.434Z,101969.84
2024-05-09T04:48:33.897Z,101966.81
2024-05-09T04:53:39.403Z,101974.50
2024-05-09T04:58:47.599Z,101967.69
2024-05-09T05:03:53.387Z,101965.34
2024-05-09T05:08:59.465Z,101970.56
2024-05-09T05:14:07.674Z,101971.75
2024-05-09T05:19:16.124Z,101977.00
2024-05-09T05:24:23.120Z,101972.84
2024-05-09T05:29:31.297Z,101983.81
2024-05-09T05:34:36.924Z,101975.78
2024-05-09T05:39:42.215Z,101976.06
2024-05-09T05:44:50.211Z,101981.91
2024-05-09T05:49:55.636Z,101976.22
2024-05-09T05:55:01.015Z,101982.41
2024-05-09T06:00:15.237Z,101994.94
2024-05-09T06:05:27.727Z,101991.19
2024-05-09T06:10:38.357Z,101991.63
2024-05-09T06:15:48.533Z,101979.66
2024-05-09T06:20:53.946Z,101982.47
2024-05-09T06:25:59.488Z,101978.34
2024-05-09T06:31:07.742Z,101984.88
2024-05-09T06:36:13.347Z,101978.28
2024-05-09T06:41:19.004Z,101977.56
2024-05-09T06:46:27.082Z,101972.00
2024-05-09T06:51:32.549Z,101969.28
2024-05-09T06:56:38.229Z,101965.00
2024-05-09T07:01:46.772Z,101962.38
2024-05-09T07:06:52.487Z,101964.94
2024-05-09T07:11:58.974Z,101972.41
2024-05-09T07:17:08.020Z,101963.66
2024-05-09T07:22:13.528Z,101953.59
2024-05-09T07:27:18.978Z,101953.28
2024-05-09T07:32:27.540Z,101960.16
2024-05-09T07:37:33.045Z,101940.88
2024-05-09T07:42:38.437Z,101960.97
2024-05-09T07:49:12.481Z,101951.69
2024-05-09T07:53:37.164Z,101946.44
2024-05-09T07:58:37.238Z,101939.94
2024-05-09T08:03:45.443Z,101937.09
2024-05-09T08:08:51.083Z,101942.22
2024-05-09T08:13:56.493Z,101930.53
2024-05-09T08:19:04.628Z,101929.25
2024-05-09T08:24:10.503Z,101925.91
2024-05-09T08:29:17.230Z,101926.88
2024-05-09T08:34:25.635Z,101918.25
2024-05-09T08:39:32.270Z,101904.94
2024-05-09T08:44:38.230Z,101898.66
2024-05-09T08:49:46.327Z,101903.88
2024-05-09T08:54:51.763Z,101905.75
2024-05-09T08:59:57.525Z,101905.59
2024-05-09T09:05:10.875Z,101911.03
2024-05-09T09:10:24.963Z,101908.59
2024-05-09T09:15:35.928Z,101907.31
2024-05-09T09:20:44.028Z,101906.53
2024-05-09T09:25:49.764Z,101909.28
2024-05-09T09:30:55.224Z,101906.66
2024-05-09T09:36:05.827Z,101920.31
2024-05-09T09:41:13.370Z,101916.56
2024-05-09T09:46:19.414Z,101898.53
2024-05-09T09:51:28.308Z,101902.00
2024-05-09T09:56:34.353Z,101885.84
2024-05-09T10:01:40.092Z,101881.13
2024-05-09T10:06:52.686Z,101889.13
2024-05-09T10:12:00.376Z,101882.38
2024-05-09T10:17:09.399Z,101873.44
2024-05-09T10:22:17.656Z,101875.53
2024-05-09T10:27:29.727Z,101862.03
2024-05-09T10:32:41.797Z,101865.09
2024-05-09T10:37:51.186Z,101855.88
2024-05-09T10:42:57.483Z,101869.25
2024-05-09T10:48:03.179Z,101853.28
2024-05-09T10:53:11.348Z,101838.31
2024-05-09T10:58:20.694Z,101838.97
2024-05-09T11:03:27.578Z,101822.56
2024-05-09T11:08:36.153Z,101819.84
2024-05-09T11:13:42.252Z,101838.13
2024-05-09T11:18:47.921Z,101828.41
2024-05-09T11:23:56.110Z,101804.81
2024-05-09T11:29:01.532Z,101819.44
2024-05-09T11:34:08.273Z,101835.41
2024-05-09T11:39:16.510Z,101811.19
2024-05-09T11:44:22.068Z,101797.34
2024-05-09T11:49:27.860Z,101800.34
2024-05-09T11:54:35.943Z,101788.78
2024-05-09T11:59:41.341Z,101791.25
2024-05-09T12:04:46.949Z,101791.41
2024-05-09T12:09:55.167Z,101777.44
2024-05-09T12:15:00.593Z,101777.41
2024-05-09T12:20:11.327Z,101762.00
2024-05-09T12:25:25.234Z,101764.06
2024-05-09T12:30:36.698Z,101763.69
2024-05-09T12:35:47.356Z,101774.00
2024-05-09T12:40:57.167Z,101758.13
2024-05-09T12:46:03.430Z,101745.69
2024-05-09T12:51:09.207Z,101742.81
2024-05-09T12:56:17.310Z,101742.06
2024-05-09T13:01:22.819Z,101732.78
2024-05-09T13:06:28.274Z,101723.00
2024-05-09T13:11:37.388Z,101717.13
2024-05-09T13:16:42.924Z,101720.16
2024-05-09T13:21:48.475Z,101702.31
2024-05-09T13:26:56.531Z,101706.63
2024-05-09T13:32:02.079Z,101699.31
2024-05-09T13:37:08.167Z,101692.28
2024-05-09T13:42:16.203Z,101686.97
2024-05-09T13:47:22.260Z,101678.56
2024-05-09T13:52:27.685Z,101674.88
2024-05-09T13:57:35.796Z,101670.47
2024-05-09T14:02:41.519Z,101679.25
2024-05-09T14:07:47.366Z,101674.44
2024-05-09T14:12:55.897Z,101681.09
2024-05-09T14:18:01.644Z,101664.78
2024-05-09T14:23:07.857Z,101661.38
2024-05-09T14:28:15.843Z,101650.25
2024-05-09T14:33:26.471Z,101649.44
2024-05-09T14:38:32.033Z,101641.09
2024-05-09T14:43:40.066Z,101640.19
2024-05-09T14:48:45.973Z,101628.31
2024-05-09T14:53:51.500Z,101620.56
2024-05-09T14:58:59.576Z,101622.41
2024-05-09T15:04:05.706Z,101618.50
2024-05-09T15:09:11.249Z,101615.94
2024-05-09T15:14:20.304Z,101619.31
2024-05-09T15:19:25.988Z,101618.66
2024-05-09T15:24:33.279Z,101604.91
2024-05-09T15:29:41.446Z,101605.41
2024-05-09T15:34:46.779Z,101596.00
2024-05-09T15:39:52.318Z,101589.06
2024-05-09T15:45:00.979Z,101603.13
2024-05-09T15:50:11.879Z,101593.78
2024-05-09T15:55:22.501Z,101589.34
2024-05-09T16:00:38.521Z,101572.56
2024-05-09T16:05:48.242Z,101592.69
2024-05-09T16:10:54.735Z,101587.66
2024-05-09T16:16:04.019Z,101580.69
2024-05-09T16:21:09.591Z,101581.63
2024-05-09T16:26:15.067Z,101575.50
2024-05-09T16:31:23.187Z,101564.56
2024-05-09T16:36:28.652Z,101566.84
2024-05-09T16:41:34.192Z,101562.38
2024-05-09T16:46:42.351Z,101575.69
2024-05-09T16:51:47.984Z,101582.03
2024-05-09T16:56:53.866Z,101578.28
2024-05-09T17:02:02.356Z,101573.75
2024-05-09T17:07:08.631Z,101566.31
2024-05-09T17:12:14.096Z,101571.31
2024-05-09T17:17:22.570Z,101563.28
2024-05-09T17:22:28.170Z,101562.00
2024-05-09T17:27:33.593Z,101562.75
2024-05-09T17:32:41.776Z,101559.84
2024-05-09T17:37:47.268Z,101566.34
2024-05-09T17:42:52.692Z,101557.22
2024-05-09T17:48:02.014Z,101557.25
2024-05-09T17:53:08.405Z,101559.84
2024-05-09T17:58:15.541Z,101559.00
2024-05-09T18:03:25.801Z,101564.63
2024-05-09T18:08:31.284Z,101564.41
2024-05-09T18:13:36.735Z,101573.03
2024-05-09T18:18:44.976Z,101566.78
2024-05-09T18:23:52.117Z,101560.03
2024-05-09T18:28:57.739Z,101573.81
2024-05-09T18:34:05.934Z,101575.06
2024-05-09T18:39:11.408Z,101578.34
2024-05-09T18:44:17.798Z,101579.41
2024-05-09T18:49:26.004Z,101584.88
2024-05-09T18:54:31.830Z,101585.78
2024-05-09T18:59:37.117Z,101588.91
2024-05-09T19:04:45.581Z,101593.00
2024-05-09T19:09:51.140Z,101601.88
2024-05-09T19:14:56.562Z,101609.00
2024-05-09T19:20:06.085Z,101609.34
2024-05-09T19:25:11.764Z,101615.75
2024-05-09T19:30:28.998Z,101618.09
2024-05-09T19:35:44.463Z,101621.91
2024-05-09T19:40:50.222Z,101628.47
2024-05-09T19:45:55.926Z,101631.47
2024-05-09T19:51:04.101Z,101635.47
2024-05-09T19:56:09.952Z,101639.44
2024-05-09T20:01:15.398Z,101636.38
2024-05-09T20:06:26.234Z,101637.94
2024-05-09T20:11:33.043Z,101639.97
2024-05-09T20:16:38.649Z,101635.91
2024-05-09T20:21:47.663Z,101644.66
2024-05-09T20:26:53.135Z,101639.88
2024-05-09T20:31:58.566Z,101632.31
2024-05-09T20:37:06.956Z,101634.78
2024-05-09T20:42:12.539Z,101640.94
2024-05-09T20:47:18.751Z,101640.75
2024-05-09T20:52:27.350Z,101646.59
2024-05-09T20:57:32.897Z,101645.50
2024-05-09T21:02:40.794Z,101642.56
2024-05-09T21:07:48.924Z,101652.03
2024-05-09T21:12:54.677Z,101652.44
2024-05-09T21:18:00.315Z,101649.28
2024-05-09T21:23:08.743Z,101648.09
2024-05-09T21:28:14.869Z,101651.72
2024-05-09T21:33:20.690Z,101651.50
2024-05-09T21:38:28.964Z,101641.69
2024-05-09T21:43:34.345Z,101649.59
2024-05-09T21:48:40.066Z,101644.78
2024-05-09T21:53:48.859Z,101646.13
2024-05-09T21:58:54.343Z,101638.84
2024-05-09T22:03:59.906Z,101636.31
2024-05-09T22:09:08.010Z,101633.06
2024-05-09T22:14:13.473Z,101646.91
2024-05-09T22:19:18.941Z,101644.84
2024-05-09T22:24:27.152Z,101648.22
2024-05-09T22:29:32.909Z,101645.25
2024-05-09T22:34:38.397Z,101643.88
2024-05-09T22:39:46.412Z,101657.09
2024-05-09T22:44:51.847Z,101653.31
2024-05-09T22:49:57.576Z,101645.72
2024-05-09T22:55:05.742Z,101647.81
2024-05-09T23:00:16.109Z,101645.28
2024-05-09T23:05:22.159Z,101659.72
2024-05-09T23:10:35.992Z,101663.03
2024-05-09T23:15:43.163Z,101662.28
2024-05-09T23:20:48.748Z,101662.00
2024-05-09T23:25:56.820Z,101657.19
2024-05-09T23:31:02.272Z,101656.94
2024-05-09T23:36:08.106Z,101645.47
2024-05-09T23:41:16.202Z,101656.59
2024-05-09T23:46:21.760Z,101643.38
2024-05-09T23:51:27.285Z,101640.25
2024-05-09T23:56:35.503Z,101647.69
